sensor_id;sensor_type;location;lat;lon;timestamp;temperature;humidity
9861;DHT22;4969;52.304;4.968;2023-10-19T00:01:57;16.23;68.15
9861;DHT22;4969;52.304;4.968;2023-10-19T00:04:23;16.68;68.08
9861;DHT22;4969;52.304;4.968;2023-10-19T00:06:50;16.58;66.92
9861;DHT22;4969;52.304;4.968;2023-10-19T00:09:16;16.40;68.55
9861;DHT22;4969;52.304;4.968;2023-10-19T00:11:42;15.93;67.60
9861;DHT22;4969;52.304;4.968;2023-10-19T00:14:08;16.48;68.92
9861;DHT22;4969;52.304;4.968;2023-10-19T00:16:42;16.79;67.43
9861;DHT22;4969;52.304;4.968;2023-10-19T00:19:11;17.28;66.19
9861;DHT22;4969;52.304;4.968;2023-10-19T00:21:44;16.86;66.70
9861;DHT22;4969;52.304;4.968;2023-10-19T00:24:16;16.77;67.78
9861;DHT22;4969;52.304;4.968;2023-10-19T00:26:44;16.62;67.93
9861;DHT22;4969;52.304;4.968;2023-10-19T00:29:13;16.75;67.70
9861;DHT22;4969;52.304;4.968;2023-10-19T00:31:56;16.49;67.53
9861;DHT22;4969;52.304;4.968;2023-10-19T00:34:25;16.80;66.94
9861;DHT22;4969;52.304;4.968;2023-10-19T00:36:51;16.55;67.80
9861;DHT22;4969;52.304;4.968;2023-10-19T00:39:18;16.61;68.17
9861;DHT22;4969;52.304;4.968;2023-10-19T00:41:47;17.00;67.25
9861;DHT22;4969;52.304;4.968;2023-10-19T00:44:15;16.93;67.24
9861;DHT22;4969;52.304;4.968;2023-10-19T00:46:47;17.10;66.62
9861;DHT22;4969;52.304;4.968;2023-10-19T00:49:15;16.65;66.46
9861;DHT22;4969;52.304;4.968;2023-10-19T00:51:45;16.41;69.07
9861;DHT22;4969;52.304;4.968;2023-10-19T00:54:23;16.40;68.80
9861;DHT22;4969;52.304;4.968;2023-10-19T00:56:57;16.16;68.63
9861;DHT22;4969;52.304;4.968;2023-10-19T00:59:29;16.31;69.50
9861;DHT22;4969;52.304;4.968;2023-10-19T01:02:00;16.33;69.14
9861;DHT22;4969;52.304;4.968;2023-10-19T01:04:42;16.75;68.04
9861;DHT22;4969;52.304;4.968;2023-10-19T01:07:11;16.72;67.47
9861;DHT22;4969;52.304;4.968;2023-10-19T01:09:41;16.89;67.34
9861;DHT22;4969;52.304;4.968;2023-10-19T01:12:10;16.75;66.81
9861;DHT22;4969;52.304;4.968;2023-10-19T01:15:09;16.76;67.86
9861;DHT22;4969;52.304;4.968;2023-10-19T01:17:39;16.55;68.06
9861;DHT22;4969;52.304;4.968;2023-10-19T01:20:10;16.85;67.30
9861;DHT22;4969;52.304;4.968;2023-10-19T01:22:50;16.89;67.65
9861;DHT22;4969;52.304;4.968;2023-10-19T01:25:19;16.69;68.31
9861;DHT22;4969;52.304;4.968;2023-10-19T01:27:52;16.38;67.92
9861;DHT22;4969;52.304;4.968;2023-10-19T01:30:22;16.23;68.80
9861;DHT22;4969;52.304;4.968;2023-10-19T01:32:49;16.19;70.04
9861;DHT22;4969;52.304;4.968;2023-10-19T01:35:17;16.26;70.01
9861;DHT22;4969;52.304;4.968;2023-10-19T01:37:43;16.47;69.34
9861;DHT22;4969;52.304;4.968;2023-10-19T01:40:11;16.48;69.12
9861;DHT22;4969;52.304;4.968;2023-10-19T01:42:40;16.44;69.85
9861;DHT22;4969;52.304;4.968;2023-10-19T01:45:07;16.45;69.72
9861;DHT22;4969;52.304;4.968;2023-10-19T01:47:36;16.38;70.05
9861;DHT22;4969;52.304;4.968;2023-10-19T01:50:02;16.52;69.57
9861;DHT22;4969;52.304;4.968;2023-10-19T01:52:31;16.79;68.62
9861;DHT22;4969;52.304;4.968;2023-10-19T01:54:56;17.13;67.51
9861;DHT22;4969;52.304;4.968;2023-10-19T01:57:34;17.16;67.20
9861;DHT22;4969;52.304;4.968;2023-10-19T02:00:00;16.96;67.62
9861;DHT22;4969;52.304;4.968;2023-10-19T02:02:34;17.00;67.73
9861;DHT22;4969;52.304;4.968;2023-10-19T02:05:00;16.86;68.34
9861;DHT22;4969;52.304;4.968;2023-10-19T02:07:34;16.51;69.86
9861;DHT22;4969;52.304;4.968;2023-10-19T02:10:00;16.69;69.23
9861;DHT22;4969;52.304;4.968;2023-10-19T02:12:26;16.64;69.53
9861;DHT22;4969;52.304;4.968;2023-10-19T02:14:53;16.88;68.57
9861;DHT22;4969;52.304;4.968;2023-10-19T02:17:20;16.76;69.04
9861;DHT22;4969;52.304;4.968;2023-10-19T02:19:46;16.52;70.00
9861;DHT22;4969;52.304;4.968;2023-10-19T02:22:12;16.55;70.41
9861;DHT22;4969;52.304;4.968;2023-10-19T02:24:39;16.80;69.32
9861;DHT22;4969;52.304;4.968;2023-10-19T02:27:05;16.86;68.94
9861;DHT22;4969;52.304;4.968;2023-10-19T02:29:31;17.21;67.71
9861;DHT22;4969;52.304;4.968;2023-10-19T02:31:58;17.42;67.48
9861;DHT22;4969;52.304;4.968;2023-10-19T02:34:29;17.45;67.23
9861;DHT22;4969;52.304;4.968;2023-10-19T02:36:55;17.32;67.47
9861;DHT22;4969;52.304;4.968;2023-10-19T02:39:22;17.57;66.40
9861;DHT22;4969;52.304;4.968;2023-10-19T02:41:53;17.54;67.69
9861;DHT22;4969;52.304;4.968;2023-10-19T02:44:20;17.35;67.36
9861;DHT22;4969;52.304;4.968;2023-10-19T02:46:49;17.58;66.67
9861;DHT22;4969;52.304;4.968;2023-10-19T02:49:17;17.75;65.53
9861;DHT22;4969;52.304;4.968;2023-10-19T02:51:45;17.67;67.50
9861;DHT22;4969;52.304;4.968;2023-10-19T02:54:11;17.82;66.38
9861;DHT22;4969;52.304;4.968;2023-10-19T02:56:44;17.83;65.40
9861;DHT22;4969;52.304;4.968;2023-10-19T02:59:13;17.58;67.59
9861;DHT22;4969;52.304;4.968;2023-10-19T03:01:41;17.79;65.95
9861;DHT22;4969;52.304;4.968;2023-10-19T03:04:10;17.90;65.56
9861;DHT22;4969;52.304;4.968;2023-10-19T03:06:39;17.87;65.21
9861;DHT22;4969;52.304;4.968;2023-10-19T03:09:07;17.90;65.98
9861;DHT22;4969;52.304;4.968;2023-10-19T03:11:39;17.90;66.66
9861;DHT22;4969;52.304;4.968;2023-10-19T03:14:06;17.75;66.94
9861;DHT22;4969;52.304;4.968;2023-10-19T03:16:33;17.65;67.50
9861;DHT22;4969;52.304;4.968;2023-10-19T03:19:00;17.76;66.80
9861;DHT22;4969;52.304;4.968;2023-10-19T03:21:26;17.81;66.34
9861;DHT22;4969;52.304;4.968;2023-10-19T03:23:54;17.95;65.34
9861;DHT22;4969;52.304;4.968;2023-10-19T03:26:22;18.00;65.75
9861;DHT22;4969;52.304;4.968;2023-10-19T03:28:55;17.93;65.58
9861;DHT22;4969;52.304;4.968;2023-10-19T03:31:24;17.96;66.79
9861;DHT22;4969;52.304;4.968;2023-10-19T03:33:51;17.90;66.27
9861;DHT22;4969;52.304;4.968;2023-10-19T03:36:21;17.97;65.61
9861;DHT22;4969;52.304;4.968;2023-10-19T03:38:48;17.95;65.75
9861;DHT22;4969;52.304;4.968;2023-10-19T03:41:18;17.89;66.97
9861;DHT22;4969;52.304;4.968;2023-10-19T03:43:47;17.83;67.25
9861;DHT22;4969;52.304;4.968;2023-10-19T03:46:17;17.83;66.46
9861;DHT22;4969;52.304;4.968;2023-10-19T03:48:53;17.79;67.09
9861;DHT22;4969;52.304;4.968;2023-10-19T03:51:24;17.87;66.07
9861;DHT22;4969;52.304;4.968;2023-10-19T03:53:52;17.89;67.05
9861;DHT22;4969;52.304;4.968;2023-10-19T03:56:25;17.81;68.14
9861;DHT22;4969;52.304;4.968;2023-10-19T03:58:51;17.89;65.77
9861;DHT22;4969;52.304;4.968;2023-10-19T04:01:18;17.83;66.54
9861;DHT22;4969;52.304;4.968;2023-10-19T04:03:46;18.02;65.98
9861;DHT22;4969;52.304;4.968;2023-10-19T04:06:13;17.96;65.82
9861;DHT22;4969;52.304;4.968;2023-10-19T04:08:40;18.04;65.49
9861;DHT22;4969;52.304;4.968;2023-10-19T04:11:10;18.04;65.36
9861;DHT22;4969;52.304;4.968;2023-10-19T04:13:48;17.83;66.66
9861;DHT22;4969;52.304;4.968;2023-10-19T04:16:18;17.87;66.35
9861;DHT22;4969;52.304;4.968;2023-10-19T04:18:45;17.95;66.08
9861;DHT22;4969;52.304;4.968;2023-10-19T04:21:14;17.93;66.06
9861;DHT22;4969;52.304;4.968;2023-10-19T04:23:40;17.82;67.90
9861;DHT22;4969;52.304;4.968;2023-10-19T04:26:08;17.72;67.08
9861;DHT22;4969;52.304;4.968;2023-10-19T04:28:38;17.78;67.32
9861;DHT22;4969;52.304;4.968;2023-10-19T04:31:11;17.90;66.14
9861;DHT22;4969;52.304;4.968;2023-10-19T04:33:41;17.90;65.91
9861;DHT22;4969;52.304;4.968;2023-10-19T04:36:12;17.82;66.77
9861;DHT22;4969;52.304;4.968;2023-10-19T04:38:39;17.78;67.43
9861;DHT22;4969;52.304;4.968;2023-10-19T04:41:06;17.78;67.13
9861;DHT22;4969;52.304;4.968;2023-10-19T04:43:34;17.82;66.97
9861;DHT22;4969;52.304;4.968;2023-10-19T04:46:04;17.95;66.60
9861;DHT22;4969;52.304;4.968;2023-10-19T04:48:35;18.10;65.28
9861;DHT22;4969;52.304;4.968;2023-10-19T04:51:02;17.99;66.09
9861;DHT22;4969;52.304;4.968;2023-10-19T04:53:31;17.97;65.94
9861;DHT22;4969;52.304;4.968;2023-10-19T04:55:57;17.86;66.61
9861;DHT22;4969;52.304;4.968;2023-10-19T04:58:25;17.87;66.62
9861;DHT22;4969;52.304;4.968;2023-10-19T05:00:52;18.04;65.65
9861;DHT22;4969;52.304;4.968;2023-10-19T05:03:19;18.09;65.55
9861;DHT22;4969;52.304;4.968;2023-10-19T05:05:47;18.14;65.58
9861;DHT22;4969;52.304;4.968;2023-10-19T05:08:13;18.10;65.44
9861;DHT22;4969;52.304;4.968;2023-10-19T05:10:40;18.00;66.08
9861;DHT22;4969;52.304;4.968;2023-10-19T05:13:07;17.87;66.93
9861;DHT22;4969;52.304;4.968;2023-10-19T05:15:33;17.99;66.16
9861;DHT22;4969;52.304;4.968;2023-10-19T05:18:00;17.87;66.94
9861;DHT22;4969;52.304;4.968;2023-10-19T05:20:27;17.90;66.78
9861;DHT22;4969;52.304;4.968;2023-10-19T05:22:55;17.96;67.02
9861;DHT22;4969;52.304;4.968;2023-10-19T05:25:23;18.09;65.83
9861;DHT22;4969;52.304;4.968;2023-10-19T05:27:49;18.06;66.04
9861;DHT22;4969;52.304;4.968;2023-10-19T05:30:16;18.06;66.28
9861;DHT22;4969;52.304;4.968;2023-10-19T05:32:44;18.10;66.47
9861;DHT22;4969;52.304;4.968;2023-10-19T05:35:11;18.02;66.18
9861;DHT22;4969;52.304;4.968;2023-10-19T05:37:44;18.00;66.14
9861;DHT22;4969;52.304;4.968;2023-10-19T05:40:12;17.95;66.56
9861;DHT22;4969;52.304;4.968;2023-10-19T05:42:40;17.93;66.74
9861;DHT22;4969;52.304;4.968;2023-10-19T05:45:07;17.87;67.31
9861;DHT22;4969;52.304;4.968;2023-10-19T05:47:34;17.99;66.51
9861;DHT22;4969;52.304;4.968;2023-10-19T05:50:01;18.10;66.05
9861;DHT22;4969;52.304;4.968;2023-10-19T05:52:29;17.92;67.10
9861;DHT22;4969;52.304;4.968;2023-10-19T05:54:56;17.83;66.86
9861;DHT22;4969;52.304;4.968;2023-10-19T05:57:26;17.72;68.23
9861;DHT22;4969;52.304;4.968;2023-10-19T05:59:52;17.75;67.76
9861;DHT22;4969;52.304;4.968;2023-10-19T06:02:19;17.96;66.72
9861;DHT22;4969;52.304;4.968;2023-10-19T06:04:47;18.12;66.13
9861;DHT22;4969;52.304;4.968;2023-10-19T06:07:13;17.99;66.25
9861;DHT22;4969;52.304;4.968;2023-10-19T06:09:40;18.02;66.25
9861;DHT22;4969;52.304;4.968;2023-10-19T06:12:06;18.10;66.36
9861;DHT22;4969;52.304;4.968;2023-10-19T06:14:36;18.10;66.07
9861;DHT22;4969;52.304;4.968;2023-10-19T06:17:02;18.17;65.74
9861;DHT22;4969;52.304;4.968;2023-10-19T06:19:29;18.20;65.69
9861;DHT22;4969;52.304;4.968;2023-10-19T06:21:55;18.17;65.84
9861;DHT22;4969;52.304;4.968;2023-10-19T06:24:22;18.09;66.09
9861;DHT22;4969;52.304;4.968;2023-10-19T06:26:49;18.00;67.23
9861;DHT22;4969;52.304;4.968;2023-10-19T06:29:15;17.95;66.81
9861;DHT22;4969;52.304;4.968;2023-10-19T06:31:43;17.93;67.29
9861;DHT22;4969;52.304;4.968;2023-10-19T06:34:10;18.04;66.77
9861;DHT22;4969;52.304;4.968;2023-10-19T06:36:37;18.04;66.42
9861;DHT22;4969;52.304;4.968;2023-10-19T06:39:04;18.12;66.34
9861;DHT22;4969;52.304;4.968;2023-10-19T06:41:31;18.03;66.53
9861;DHT22;4969;52.304;4.968;2023-10-19T06:43:58;17.89;67.34
9861;DHT22;4969;52.304;4.968;2023-10-19T06:46:26;18.03;66.71
9861;DHT22;4969;52.304;4.968;2023-10-19T06:48:54;18.16;65.93
9861;DHT22;4969;52.304;4.968;2023-10-19T06:51:25;18.12;66.42
9861;DHT22;4969;52.304;4.968;2023-10-19T06:53:52;17.76;68.53
9861;DHT22;4969;52.304;4.968;2023-10-19T06:56:19;17.92;67.21
9861;DHT22;4969;52.304;4.968;2023-10-19T06:58:45;18.04;66.65
9861;DHT22;4969;52.304;4.968;2023-10-19T07:01:13;17.96;67.46
9861;DHT22;4969;52.304;4.968;2023-10-19T07:03:42;18.12;66.64
9861;DHT22;4969;52.304;4.968;2023-10-19T07:06:10;18.03;67.45
9861;DHT22;4969;52.304;4.968;2023-10-19T07:08:38;17.92;68.12
9861;DHT22;4969;52.304;4.968;2023-10-19T07:11:06;17.97;67.38
9861;DHT22;4969;52.304;4.968;2023-10-19T07:13:33;18.09;66.88
9861;DHT22;4969;52.304;4.968;2023-10-19T07:15:59;18.09;66.58
9861;DHT22;4969;52.304;4.968;2023-10-19T07:18:26;17.96;67.29
9861;DHT22;4969;52.304;4.968;2023-10-19T07:20:53;17.97;67.28
9861;DHT22;4969;52.304;4.968;2023-10-19T07:23:29;18.07;67.10
9861;DHT22;4969;52.304;4.968;2023-10-19T07:25:56;18.07;67.25
9861;DHT22;4969;52.304;4.968;2023-10-19T07:28:25;17.96;67.44
9861;DHT22;4969;52.304;4.968;2023-10-19T07:30:53;18.13;66.61
9861;DHT22;4969;52.304;4.968;2023-10-19T07:33:19;18.13;67.06
9861;DHT22;4969;52.304;4.968;2023-10-19T07:35:47;18.28;66.37
9861;DHT22;4969;52.304;4.968;2023-10-19T07:38:17;18.30;66.39
9861;DHT22;4969;52.304;4.968;2023-10-19T07:40:48;18.28;66.43
9861;DHT22;4969;52.304;4.968;2023-10-19T07:43:18;18.27;66.56
9861;DHT22;4969;52.304;4.968;2023-10-19T07:45:45;18.17;67.14
9861;DHT22;4969;52.304;4.968;2023-10-19T07:48:13;18.27;66.50
9861;DHT22;4969;52.304;4.968;2023-10-19T07:50:40;18.28;66.38
9861;DHT22;4969;52.304;4.968;2023-10-19T07:53:07;18.27;66.50
9861;DHT22;4969;52.304;4.968;2023-10-19T07:55:34;18.31;66.07
9861;DHT22;4969;52.304;4.968;2023-10-19T07:58:03;18.18;66.57
9861;DHT22;4969;52.304;4.968;2023-10-19T08:00:30;18.28;66.50
9861;DHT22;4969;52.304;4.968;2023-10-19T08:02:59;18.30;66.41
9861;DHT22;4969;52.304;4.968;2023-10-19T08:05:26;18.31;66.33
9861;DHT22;4969;52.304;4.968;2023-10-19T08:07:53;18.31;66.52
9861;DHT22;4969;52.304;4.968;2023-10-19T08:10:20;18.37;66.28
9861;DHT22;4969;52.304;4.968;2023-10-19T08:12:48;18.40;66.14
9861;DHT22;4969;52.304;4.968;2023-10-19T08:15:17;18.43;66.10
9861;DHT22;4969;52.304;4.968;2023-10-19T08:17:47;18.43;66.30
9861;DHT22;4969;52.304;4.968;2023-10-19T08:20:14;18.41;66.36
9861;DHT22;4969;52.304;4.968;2023-10-19T08:22:42;18.47;66.13
9861;DHT22;4969;52.304;4.968;2023-10-19T08:25:12;18.37;66.68
9861;DHT22;4969;52.304;4.968;2023-10-19T08:27:40;18.43;66.33
9861;DHT22;4969;52.304;4.968;2023-10-19T08:30:10;18.44;66.26
9861;DHT22;4969;52.304;4.968;2023-10-19T08:32:39;18.45;66.24
9861;DHT22;4969;52.304;4.968;2023-10-19T08:35:07;18.44;66.26
9861;DHT22;4969;52.304;4.968;2023-10-19T08:37:34;18.41;66.47
9861;DHT22;4969;52.304;4.968;2023-10-19T08:40:01;18.41;66.54
9861;DHT22;4969;52.304;4.968;2023-10-19T08:42:29;18.41;66.64
9861;DHT22;4969;52.304;4.968;2023-10-19T08:44:55;18.35;67.20
9861;DHT22;4969;52.304;4.968;2023-10-19T08:47:24;18.35;66.96
9861;DHT22;4969;52.304;4.968;2023-10-19T08:49:53;18.35;67.07
9861;DHT22;4969;52.304;4.968;2023-10-19T08:52:21;18.33;67.41
9861;DHT22;4969;52.304;4.968;2023-10-19T08:54:49;18.40;66.98
9861;DHT22;4969;52.304;4.968;2023-10-19T08:57:15;18.40;67.05
9861;DHT22;4969;52.304;4.968;2023-10-19T08:59:44;18.47;66.71
9861;DHT22;4969;52.304;4.968;2023-10-19T09:02:12;18.48;66.80
9861;DHT22;4969;52.304;4.968;2023-10-19T09:04:41;18.43;67.77
9861;DHT22;4969;52.304;4.968;2023-10-19T09:07:10;18.35;67.41
9861;DHT22;4969;52.304;4.968;2023-10-19T09:09:37;18.43;67.16
9861;DHT22;4969;52.304;4.968;2023-10-19T09:12:06;18.44;67.23
9861;DHT22;4969;52.304;4.968;2023-10-19T09:14:34;18.43;67.80
9861;DHT22;4969;52.304;4.968;2023-10-19T09:17:02;18.44;67.51
9861;DHT22;4969;52.304;4.968;2023-10-19T09:19:40;18.58;67.41
9861;DHT22;4969;52.304;4.968;2023-10-19T09:22:07;18.59;67.07
9861;DHT22;4969;52.304;4.968;2023-10-19T09:24:43;18.65;67.43
9861;DHT22;4969;52.304;4.968;2023-10-19T09:27:10;18.76;67.09
9861;DHT22;4969;52.304;4.968;2023-10-19T09:29:37;18.89;67.02
9861;DHT22;4969;52.304;4.968;2023-10-19T09:32:05;18.93;67.87
9861;DHT22;4969;52.304;4.968;2023-10-19T09:34:34;19.10;67.14
9861;DHT22;4969;52.304;4.968;2023-10-19T09:37:01;19.03;67.83
9861;DHT22;4969;52.304;4.968;2023-10-19T09:39:28;19.16;66.60
9861;DHT22;4969;52.304;4.968;2023-10-19T09:42:02;19.13;67.54
9861;DHT22;4969;52.304;4.968;2023-10-19T09:44:37;19.11;67.85
9861;DHT22;4969;52.304;4.968;2023-10-19T09:47:09;19.10;67.56
9861;DHT22;4969;52.304;4.968;2023-10-19T09:49:38;19.16;67.13
9861;DHT22;4969;52.304;4.968;2023-10-19T09:52:05;19.26;66.94
9861;DHT22;4969;52.304;4.968;2023-10-19T09:54:37;19.24;67.35
9861;DHT22;4969;52.304;4.968;2023-10-19T09:57:17;19.38;66.19
9861;DHT22;4969;52.304;4.968;2023-10-19T09:59:50;19.42;66.80
9861;DHT22;4969;52.304;4.968;2023-10-19T10:02:19;19.50;65.40
9861;DHT22;4969;52.304;4.968;2023-10-19T10:04:47;19.45;65.64
9861;DHT22;4969;52.304;4.968;2023-10-19T10:07:14;19.44;65.65
9861;DHT22;4969;52.304;4.968;2023-10-19T10:09:42;19.38;66.38
9861;DHT22;4969;52.304;4.968;2023-10-19T10:12:18;19.47;69.55
9861;DHT22;4969;52.304;4.968;2023-10-19T10:14:59;19.59;69.72
9861;DHT22;4969;52.304;4.968;2023-10-19T10:17:28;19.57;65.68
9861;DHT22;4969;52.304;4.968;2023-10-19T10:19:56;19.59;65.45
9861;DHT22;4969;52.304;4.968;2023-10-19T10:22:43;19.59;64.78
9861;DHT22;4969;52.304;4.968;2023-10-19T10:25:25;19.54;67.18
9861;DHT22;4969;52.304;4.968;2023-10-19T10:27:53;19.54;65.58
9861;DHT22;4969;52.304;4.968;2023-10-19T10:30:21;19.54;65.78
9861;DHT22;4969;52.304;4.968;2023-10-19T10:32:50;19.51;66.41
9861;DHT22;4969;52.304;4.968;2023-10-19T10:38:33;19.38;69.05
9861;DHT22;4969;52.304;4.968;2023-10-19T10:41:00;19.37;67.01
9861;DHT22;4969;52.304;4.968;2023-10-19T10:43:28;19.40;66.72
9861;DHT22;4969;52.304;4.968;2023-10-19T10:46:03;19.35;66.97
9861;DHT22;4969;52.304;4.968;2023-10-19T10:48:30;19.33;66.48
9861;DHT22;4969;52.304;4.968;2023-10-19T10:50:56;19.26;67.69
9861;DHT22;4969;52.304;4.968;2023-10-19T10:53:23;19.26;67.93
9861;DHT22;4969;52.304;4.968;2023-10-19T10:55:52;19.23;66.93
9861;DHT22;4969;52.304;4.968;2023-10-19T10:58:19;19.23;66.76
9861;DHT22;4969;52.304;4.968;2023-10-19T11:00:48;19.19;67.36
9861;DHT22;4969;52.304;4.968;2023-10-19T11:03:17;19.26;66.80
9861;DHT22;4969;52.304;4.968;2023-10-19T11:05:43;19.20;66.75
9861;DHT22;4969;52.304;4.968;2023-10-19T11:08:13;19.27;66.54
9861;DHT22;4969;52.304;4.968;2023-10-19T11:10:42;19.24;66.94
9861;DHT22;4969;52.304;4.968;2023-10-19T11:13:10;19.37;66.55
9861;DHT22;4969;52.304;4.968;2023-10-19T11:15:38;19.37;68.51
9861;DHT22;4969;52.304;4.968;2023-10-19T11:18:06;19.45;66.35
9861;DHT22;4969;52.304;4.968;2023-10-19T11:20:34;19.45;67.93
9861;DHT22;4969;52.304;4.968;2023-10-19T11:23:01;19.44;67.57
9861;DHT22;4969;52.304;4.968;2023-10-19T11:25:29;19.50;66.74
9861;DHT22;4969;52.304;4.968;2023-10-19T11:27:58;19.58;66.35
9861;DHT22;4969;52.304;4.968;2023-10-19T11:30:27;19.71;65.51
9861;DHT22;4969;52.304;4.968;2023-10-19T11:32:54;19.73;65.50
9861;DHT22;4969;52.304;4.968;2023-10-19T11:35:28;19.68;66.50
9861;DHT22;4969;52.304;4.968;2023-10-19T11:37:56;19.63;66.71
9861;DHT22;4969;52.304;4.968;2023-10-19T11:40:23;19.65;67.16
9861;DHT22;4969;52.304;4.968;2023-10-19T11:42:51;19.66;66.27
9861;DHT22;4969;52.304;4.968;2023-10-19T11:45:18;19.65;65.46
9861;DHT22;4969;52.304;4.968;2023-10-19T11:47:45;19.55;66.55
9861;DHT22;4969;52.304;4.968;2023-10-19T11:50:12;19.57;66.88
9861;DHT22;4969;52.304;4.968;2023-10-19T11:52:41;19.63;66.16
9861;DHT22;4969;52.304;4.968;2023-10-19T11:55:08;19.62;65.89
9861;DHT22;4969;52.304;4.968;2023-10-19T11:57:35;19.62;67.23
9861;DHT22;4969;52.304;4.968;2023-10-19T12:00:02;19.65;66.66
9861;DHT22;4969;52.304;4.968;2023-10-19T12:02:34;19.73;66.44
9861;DHT22;4969;52.304;4.968;2023-10-19T12:05:02;19.76;66.63
9861;DHT22;4969;52.304;4.968;2023-10-19T12:07:29;19.82;65.85
9861;DHT22;4969;52.304;4.968;2023-10-19T12:09:59;19.83;66.21
9861;DHT22;4969;52.304;4.968;2023-10-19T12:12:25;19.99;66.20
9861;DHT22;4969;52.304;4.968;2023-10-19T12:14:52;20.09;65.71
9861;DHT22;4969;52.304;4.968;2023-10-19T12:17:20;19.99;66.57
9861;DHT22;4969;52.304;4.968;2023-10-19T12:19:47;20.03;66.27
9861;DHT22;4969;52.304;4.968;2023-10-19T12:22:15;20.05;67.03
9861;DHT22;4969;52.304;4.968;2023-10-19T12:24:42;19.92;67.15
9861;DHT22;4969;52.304;4.968;2023-10-19T12:27:10;19.93;66.15
9861;DHT22;4969;52.304;4.968;2023-10-19T12:29:39;19.86;65.79
9861;DHT22;4969;52.304;4.968;2023-10-19T12:32:06;19.80;67.48
9861;DHT22;4969;52.304;4.968;2023-10-19T12:34:32;19.73;66.91
9861;DHT22;4969;52.304;4.968;2023-10-19T12:37:00;19.78;67.72
9861;DHT22;4969;52.304;4.968;2023-10-19T12:39:29;19.69;66.50
9861;DHT22;4969;52.304;4.968;2023-10-19T12:42:05;19.75;66.49
9861;DHT22;4969;52.304;4.968;2023-10-19T12:44:34;19.69;66.92
9861;DHT22;4969;52.304;4.968;2023-10-19T12:47:06;19.68;67.70
9861;DHT22;4969;52.304;4.968;2023-10-19T12:49:35;19.59;66.53
9861;DHT22;4969;52.304;4.968;2023-10-19T12:52:01;19.63;67.67
9861;DHT22;4969;52.304;4.968;2023-10-19T12:54:29;19.62;66.43
9861;DHT22;4969;52.304;4.968;2023-10-19T12:56:56;19.65;66.86
9861;DHT22;4969;52.304;4.968;2023-10-19T12:59:23;19.68;66.85
9861;DHT22;4969;52.304;4.968;2023-10-19T13:01:51;19.66;66.93
9861;DHT22;4969;52.304;4.968;2023-10-19T13:04:23;19.62;68.37
9861;DHT22;4969;52.304;4.968;2023-10-19T13:06:49;19.63;67.05
9861;DHT22;4969;52.304;4.968;2023-10-19T13:09:16;19.61;68.22
9861;DHT22;4969;52.304;4.968;2023-10-19T13:11:47;19.62;68.13
9861;DHT22;4969;52.304;4.968;2023-10-19T13:14:17;19.68;68.00
9861;DHT22;4969;52.304;4.968;2023-10-19T13:16:44;19.71;68.31
9861;DHT22;4969;52.304;4.968;2023-10-19T13:19:12;19.68;68.35
9861;DHT22;4969;52.304;4.968;2023-10-19T13:21:39;19.72;68.68
9861;DHT22;4969;52.304;4.968;2023-10-19T13:24:07;19.62;69.22
9861;DHT22;4969;52.304;4.968;2023-10-19T13:26:35;19.72;68.71
9861;DHT22;4969;52.304;4.968;2023-10-19T13:29:03;19.80;68.72
9861;DHT22;4969;52.304;4.968;2023-10-19T13:31:30;19.78;68.75
9861;DHT22;4969;52.304;4.968;2023-10-19T13:33:57;19.80;68.52
9861;DHT22;4969;52.304;4.968;2023-10-19T13:36:26;19.82;68.26
9861;DHT22;4969;52.304;4.968;2023-10-19T13:38:52;19.85;68.27
9861;DHT22;4969;52.304;4.968;2023-10-19T13:41:19;19.86;68.54
9861;DHT22;4969;52.304;4.968;2023-10-19T13:43:46;19.83;68.11
9861;DHT22;4969;52.304;4.968;2023-10-19T13:46:13;19.79;69.36
9861;DHT22;4969;52.304;4.968;2023-10-19T13:48:40;19.82;68.57
9861;DHT22;4969;52.304;4.968;2023-10-19T13:51:07;19.79;68.91
9861;DHT22;4969;52.304;4.968;2023-10-19T13:53:40;19.73;69.52
9861;DHT22;4969;52.304;4.968;2023-10-19T13:56:10;19.66;70.58
9861;DHT22;4969;52.304;4.968;2023-10-19T13:58:37;19.62;69.00
9861;DHT22;4969;52.304;4.968;2023-10-19T14:01:06;19.58;68.96
9861;DHT22;4969;52.304;4.968;2023-10-19T14:03:33;19.59;68.91
9861;DHT22;4969;52.304;4.968;2023-10-19T14:06:00;19.52;69.98
9861;DHT22;4969;52.304;4.968;2023-10-19T14:08:26;19.57;69.23
9861;DHT22;4969;52.304;4.968;2023-10-19T14:11:00;19.51;69.72
9861;DHT22;4969;52.304;4.968;2023-10-19T14:13:27;19.48;69.50
9861;DHT22;4969;52.304;4.968;2023-10-19T14:15:54;19.54;68.83
9861;DHT22;4969;52.304;4.968;2023-10-19T14:18:21;19.55;69.13
9861;DHT22;4969;52.304;4.968;2023-10-19T14:20:47;19.50;69.31
9861;DHT22;4969;52.304;4.968;2023-10-19T14:23:14;19.48;69.45
9861;DHT22;4969;52.304;4.968;2023-10-19T14:25:41;19.47;69.83
9861;DHT22;4969;52.304;4.968;2023-10-19T14:28:10;19.52;70.70
9861;DHT22;4969;52.304;4.968;2023-10-19T14:30:37;19.45;71.11
9861;DHT22;4969;52.304;4.968;2023-10-19T14:33:04;19.57;70.25
9861;DHT22;4969;52.304;4.968;2023-10-19T14:35:36;19.44;70.83
9861;DHT22;4969;52.304;4.968;2023-10-19T14:38:04;19.48;69.44
9861;DHT22;4969;52.304;4.968;2023-10-19T14:40:32;19.31;70.87
9861;DHT22;4969;52.304;4.968;2023-10-19T14:42:58;19.38;70.19
9861;DHT22;4969;52.304;4.968;2023-10-19T14:45:28;19.35;70.26
9861;DHT22;4969;52.304;4.968;2023-10-19T14:47:56;19.27;71.20
9861;DHT22;4969;52.304;4.968;2023-10-19T14:50:24;19.31;69.87
9861;DHT22;4969;52.304;4.968;2023-10-19T14:52:53;19.30;70.35
9861;DHT22;4969;52.304;4.968;2023-10-19T14:55:19;19.22;69.80
9861;DHT22;4969;52.304;4.968;2023-10-19T14:57:48;19.17;70.66
9861;DHT22;4969;52.304;4.968;2023-10-19T15:00:16;19.14;70.57
9861;DHT22;4969;52.304;4.968;2023-10-19T15:02:49;18.99;72.48
9861;DHT22;4969;52.304;4.968;2023-10-19T15:05:16;18.90;71.66
9861;DHT22;4969;52.304;4.968;2023-10-19T15:07:44;19.03;70.92
9861;DHT22;4969;52.304;4.968;2023-10-19T15:10:11;18.93;71.55
9861;DHT22;4969;52.304;4.968;2023-10-19T15:12:38;18.90;71.52
9861;DHT22;4969;52.304;4.968;2023-10-19T15:15:06;18.96;70.92
9861;DHT22;4969;52.304;4.968;2023-10-19T15:17:34;18.97;70.32
9861;DHT22;4969;52.304;4.968;2023-10-19T15:20:02;18.97;71.60
9861;DHT22;4969;52.304;4.968;2023-10-19T15:22:30;18.96;71.15
9861;DHT22;4969;52.304;4.968;2023-10-19T15:24:57;18.92;70.95
9861;DHT22;4969;52.304;4.968;2023-10-19T15:27:24;19.03;70.42
9861;DHT22;4969;52.304;4.968;2023-10-19T15:29:50;18.90;71.48
9861;DHT22;4969;52.304;4.968;2023-10-19T15:32:17;18.89;71.33
9861;DHT22;4969;52.304;4.968;2023-10-19T15:34:44;18.78;72.75
9861;DHT22;4969;52.304;4.968;2023-10-19T15:37:13;18.85;72.81
9861;DHT22;4969;52.304;4.968;2023-10-19T15:39:39;18.95;72.30
9861;DHT22;4969;52.304;4.968;2023-10-19T15:42:06;18.92;73.01
9861;DHT22;4969;52.304;4.968;2023-10-19T15:44:33;18.96;71.85
9861;DHT22;4969;52.304;4.968;2023-10-19T15:47:00;19.26;71.12
9861;DHT22;4969;52.304;4.968;2023-10-19T15:49:29;19.19;72.30
9861;DHT22;4969;52.304;4.968;2023-10-19T15:51:56;19.26;71.61
9861;DHT22;4969;52.304;4.968;2023-10-19T15:54:23;19.16;72.34
9861;DHT22;4969;52.304;4.968;2023-10-19T15:56:52;19.19;71.94
9861;DHT22;4969;52.304;4.968;2023-10-19T15:59:19;19.07;72.01
9861;DHT22;4969;52.304;4.968;2023-10-19T16:01:46;19.11;71.82
9861;DHT22;4969;52.304;4.968;2023-10-19T16:04:13;19.20;71.75
9861;DHT22;4969;52.304;4.968;2023-10-19T16:06:39;19.42;72.70
9861;DHT22;4969;52.304;4.968;2023-10-19T16:09:06;19.44;72.79
9861;DHT22;4969;52.304;4.968;2023-10-19T16:11:34;19.71;71.96
9861;DHT22;4969;52.304;4.968;2023-10-19T16:14:01;19.58;71.87